WXM80 ListenWXM80 Stop

You find our weather info also at:

UK Metoffice

WeatherCloud

Weather Underground

Northeastern Weather Network

AWEKAS

Citizen Weather Observer Program (CWOP)

HAMweather, WeatherForYou, PWS Weather


Weather Underground History page Text

Daily Summary for June 19, 2017 Units:  Both    English   Metric
« Previous Day
Next Day »
Daily Weekly Monthly Yearly Custom
  High: Low: Average:
Temperature: 86.3 °F /  30.2 °C 69.3 °F /  20.7 °C 76.9 °F /  24.9 °C
Dew Point: 76.9 °F /  24.9 °C 68.1 °F /  20.1 °C 72.4 °F /  22.4 °C
Humidity: 96 % 70 % 87 %
Wind Speed: 9.0 mph /  14.5 km/h - 2.2 mph /  3.5 km/h
Wind Gust: 19.6 mph /  31.5 km/h - -
Wind:- - South
Pressure: 29.84 in /  1010.4 hPa 29.72 in /  1006.3 hPa -
Precipitation: 0.97 in /  24.64 mm    
Historical Graphs
 
 
Tabular Data for June 19, 2017
Time Temperature Dew Point Pressure Wind Wind Speed Wind Gust Humidity Rainfall Rate (Hourly)
00:00 73.6 °F /  23.1 °C 71.4 °F /  21.9 °C 29.79 in /  1008.7 hPa South 1.2 mph /  1.9 km/h 6.9 mph /  11.1 km/h 93 % 0.00 in /  0 mm
00:05 73.6 °F /  23.1 °C 71.4 °F /  21.9 °C 29.79 in /  1008.7 hPa SSE 2.0 mph /  3.2 km/h 4.6 mph /  7.4 km/h 93 % 0.00 in /  0 mm
00:10 73.6 °F /  23.1 °C 71.4 °F /  21.9 °C 29.79 in /  1008.7 hPa SE 1.8 mph /  2.9 km/h 4.0 mph /  6.4 km/h 93 % 0.00 in /  0 mm
00:15 73.6 °F /  23.1 °C 71.4 °F /  21.9 °C 29.79 in /  1008.7 hPa South 0.7 mph /  1.1 km/h 2.0 mph /  3.2 km/h 93 % 0.00 in /  0 mm
00:20 73.5 °F /  23.1 °C 71.4 °F /  21.9 °C 29.79 in /  1008.7 hPa SSE 3.0 mph /  4.8 km/h 8.1 mph /  13 km/h 93 % 0.00 in /  0 mm
00:25 73.5 °F /  23.1 °C 71.4 °F /  21.9 °C 29.79 in /  1008.7 hPa SSE 0.7 mph /  1.1 km/h 3.5 mph /  5.6 km/h 93 % 0.00 in /  0 mm
00:26 73.5 °F /  23.1 °C 71.4 °F /  21.9 °C 29.79 in /  1008.7 hPa SSW 2.6 mph /  4.2 km/h 7.0 mph /  11.3 km/h 93 % 0.00 in /  0 mm
00:31 73.5 °F /  23.1 °C 71.4 °F /  21.9 °C 29.79 in /  1008.7 hPa SE 1.5 mph /  2.4 km/h 3.5 mph /  5.6 km/h 93 % 0.00 in /  0 mm
00:36 73.4 °F /  23 °C 71.3 °F /  21.8 °C 29.79 in /  1008.7 hPa South 1.5 mph /  2.4 km/h 3.5 mph /  5.6 km/h 93 % 0.00 in /  0 mm
00:41 73.4 °F /  23 °C 71.3 °F /  21.8 °C 29.79 in /  1008.7 hPa SSE 1.6 mph /  2.6 km/h 5.8 mph /  9.3 km/h 93 % 0.00 in /  0 mm
00:46 73.3 °F /  22.9 °C 71.2 °F /  21.8 °C 29.79 in /  1008.7 hPa SSE 1.0 mph /  1.6 km/h 5.8 mph /  9.3 km/h 93 % 0.00 in /  0 mm
00:51 73.3 °F /  22.9 °C 71.2 °F /  21.8 °C 29.79 in /  1008.7 hPa SE 2.4 mph /  3.9 km/h 4.6 mph /  7.4 km/h 93 % 0.00 in /  0 mm
00:56 73.2 °F /  22.9 °C 71.1 °F /  21.7 °C 29.79 in /  1008.7 hPa SSW 2.0 mph /  3.2 km/h 4.0 mph /  6.4 km/h 93 % 0.00 in /  0 mm
01:01 73.2 °F /  22.9 °C 71.1 °F /  21.7 °C 29.79 in /  1008.7 hPa SSW 2.5 mph /  4 km/h 5.8 mph /  9.3 km/h 93 % 0.00 in /  0 mm
01:06 73.1 °F /  22.8 °C 71.0 °F /  21.7 °C 29.79 in /  1008.7 hPa South 1.1 mph /  1.8 km/h 3.5 mph /  5.6 km/h 93 % 0.00 in /  0 mm
01:11 73.1 °F /  22.8 °C 71.3 °F /  21.8 °C 29.78 in /  1008.4 hPa SSW 1.7 mph /  2.7 km/h 4.6 mph /  7.4 km/h 94 % 0.00 in /  0 mm
01:16 73.1 °F /  22.8 °C 71.3 °F /  21.8 °C 29.78 in /  1008.4 hPa SSW 1.5 mph /  2.4 km/h 3.5 mph /  5.6 km/h 94 % 0.00 in /  0 mm
01:21 73.1 °F /  22.8 °C 71.3 °F /  21.8 °C 29.78 in /  1008.4 hPa SSE 0.5 mph /  0.8 km/h 3.5 mph /  5.6 km/h 94 % 0.00 in /  0 mm
01:26 73.0 °F /  22.8 °C 71.2 °F /  21.8 °C 29.78 in /  1008.4 hPa SSW 1.5 mph /  2.4 km/h 5.8 mph /  9.3 km/h 94 % 0.00 in /  0 mm
01:31 73.0 °F /  22.8 °C 71.2 °F /  21.8 °C 29.78 in /  1008.4 hPa South 0.8 mph /  1.3 km/h 3.5 mph /  5.6 km/h 94 % 0.00 in /  0 mm
01:36 73.0 °F /  22.8 °C 71.2 °F /  21.8 °C 29.78 in /  1008.4 hPa SSW 1.4 mph /  2.3 km/h 3.5 mph /  5.6 km/h 94 % 0.00 in /  0 mm
01:41 73.0 °F /  22.8 °C 71.2 °F /  21.8 °C 29.78 in /  1008.4 hPa SW 1.1 mph /  1.8 km/h 4.6 mph /  7.4 km/h 94 % 0.00 in /  0 mm
01:46 73.0 °F /  22.8 °C 71.2 °F /  21.8 °C 29.78 in /  1008.4 hPa South 1.5 mph /  2.4 km/h 3.5 mph /  5.6 km/h 94 % 0.00 in /  0 mm
01:51 72.9 °F /  22.7 °C 71.1 °F /  21.7 °C 29.78 in /  1008.4 hPa SSW 1.5 mph /  2.4 km/h 3.5 mph /  5.6 km/h 94 % 0.00 in /  0 mm
01:56 72.9 °F /  22.7 °C 71.1 °F /  21.7 °C 29.78 in /  1008.4 hPa SSW 0.9 mph /  1.4 km/h 4.6 mph /  7.4 km/h 94 % 0.00 in /  0 mm
02:01 72.9 °F /  22.7 °C 71.1 °F /  21.7 °C 29.78 in /  1008.4 hPa South 1.6 mph /  2.6 km/h 4.6 mph /  7.4 km/h 94 % 0.00 in /  0 mm
02:06 72.9 °F /  22.7 °C 71.1 °F /  21.7 °C 29.77 in /  1008 hPa South 1.2 mph /  1.9 km/h 3.5 mph /  5.6 km/h 94 % 0.00 in /  0 mm
02:11 72.9 °F /  22.7 °C 71.1 °F /  21.7 °C 29.77 in /  1008 hPa South 1.7 mph /  2.7 km/h 4.6 mph /  7.4 km/h 94 % 0.00 in /  0 mm
02:16 72.8 °F /  22.7 °C 71.0 °F /  21.7 °C 29.78 in /  1008.4 hPa SE 2.2 mph /  3.5 km/h 9.0 mph /  14.5 km/h 94 % 0.00 in /  0 mm
02:21 72.8 °F /  22.7 °C 71.0 °F /  21.7 °C 29.77 in /  1008 hPa SSE 1.0 mph /  1.6 km/h 4.6 mph /  7.4 km/h 94 % 0.00 in /  0 mm
02:26 72.8 °F /  22.7 °C 71.0 °F /  21.7 °C 29.77 in /  1008 hPa South 1.1 mph /  1.8 km/h 6.9 mph /  11.1 km/h 94 % 0.00 in /  0 mm
02:31 72.8 °F /  22.7 °C 71.0 °F /  21.7 °C 29.78 in /  1008.4 hPa SE 1.4 mph /  2.3 km/h 3.5 mph /  5.6 km/h 94 % 0.00 in /  0 mm
02:36 72.8 °F /  22.7 °C 71.0 °F /  21.7 °C 29.78 in /  1008.4 hPa SSW 1.7 mph /  2.7 km/h 6.0 mph /  9.7 km/h 94 % 0.00 in /  0 mm
02:41 72.8 °F /  22.7 °C 71.0 °F /  21.7 °C 29.78 in /  1008.4 hPa SE 2.9 mph /  4.7 km/h 4.6 mph /  7.4 km/h 94 % 0.00 in /  0 mm
02:46 72.8 °F /  22.7 °C 71.0 °F /  21.7 °C 29.78 in /  1008.4 hPa SSE 1.6 mph /  2.6 km/h 4.6 mph /  7.4 km/h 94 % 0.00 in /  0 mm
02:51 72.8 °F /  22.7 °C 71.0 °F /  21.7 °C 29.78 in /  1008.4 hPa SE 1.0 mph /  1.6 km/h 2.3 mph /  3.7 km/h 94 % 0.00 in /  0 mm
02:56 72.8 °F /  22.7 °C 71.0 °F /  21.7 °C 29.78 in /  1008.4 hPa SE 1.4 mph /  2.3 km/h 4.0 mph /  6.4 km/h 94 % 0.00 in /  0 mm
03:02 72.9 °F /  22.7 °C 71.1 °F /  21.7 °C 29.78 in /  1008.4 hPa SSE 0.5 mph /  0.8 km/h 3.5 mph /  5.6 km/h 94 % 0.00 in /  0 mm
03:07 72.9 °F /  22.7 °C 71.1 °F /  21.7 °C 29.78 in /  1008.4 hPa South 0.7 mph /  1.1 km/h 3.5 mph /  5.6 km/h 94 % 0.00 in /  0 mm
03:17 73.0 °F /  22.8 °C 71.2 °F /  21.8 °C 29.78 in /  1008.4 hPa SSW 1.0 mph /  1.6 km/h 3.5 mph /  5.6 km/h 94 % 0.00 in /  0 mm
03:22 73.0 °F /  22.8 °C 71.2 °F /  21.8 °C 29.78 in /  1008.4 hPa South 1.1 mph /  1.8 km/h 3.5 mph /  5.6 km/h 94 % 0.00 in /  0 mm
03:27 73.0 °F /  22.8 °C 71.2 °F /  21.8 °C 29.77 in /  1008 hPa SSW 1.1 mph /  1.8 km/h 3.5 mph /  5.6 km/h 94 % 0.00 in /  0 mm
03:32 72.9 °F /  22.7 °C 71.1 °F /  21.7 °C 29.78 in /  1008.4 hPa SSE 2.4 mph /  3.9 km/h 4.6 mph /  7.4 km/h 94 % 0.00 in /  0 mm
03:37 72.9 °F /  22.7 °C 71.1 °F /  21.7 °C 29.78 in /  1008.4 hPa South 0.6 mph /  1 km/h 2.3 mph /  3.7 km/h 94 % 0.00 in /  0 mm
03:42 72.9 °F /  22.7 °C 71.1 °F /  21.7 °C 29.78 in /  1008.4 hPa SSE 1.0 mph /  1.6 km/h 4.6 mph /  7.4 km/h 94 % 0.00 in /  0 mm
03:47 72.9 °F /  22.7 °C 71.1 °F /  21.7 °C 29.78 in /  1008.4 hPa SE 1.3 mph /  2.1 km/h 5.8 mph /  9.3 km/h 94 % 0.00 in /  0 mm
03:52 72.8 °F /  22.7 °C 71.0 °F /  21.7 °C 29.78 in /  1008.4 hPa WSW 1.7 mph /  2.7 km/h 4.0 mph /  6.4 km/h 94 % 0.00 in /  0 mm
03:57 72.8 °F /  22.7 °C 71.0 °F /  21.7 °C 29.78 in /  1008.4 hPa SSE 2.8 mph /  4.5 km/h 5.8 mph /  9.3 km/h 94 % 0.00 in /  0 mm
04:02 72.7 °F /  22.6 °C 70.9 °F /  21.6 °C 29.78 in /  1008.4 hPa SSE 1.5 mph /  2.4 km/h 5.8 mph /  9.3 km/h 94 % 0.00 in /  0 mm
04:07 72.7 °F /  22.6 °C 70.9 °F /  21.6 °C 29.78 in /  1008.4 hPa South 1.8 mph /  2.9 km/h 6.9 mph /  11.1 km/h 94 % 0.00 in /  0 mm
04:12 72.7 °F /  22.6 °C 70.9 °F /  21.6 °C 29.78 in /  1008.4 hPa South 1.4 mph /  2.3 km/h 3.0 mph /  4.8 km/h 94 % 0.00 in /  0 mm
04:17 72.6 °F /  22.6 °C 70.8 °F /  21.6 °C 29.78 in /  1008.4 hPa South 0.3 mph /  0.5 km/h 3.5 mph /  5.6 km/h 94 % 0.00 in /  0 mm
04:22 72.6 °F /  22.6 °C 70.8 °F /  21.6 °C 29.78 in /  1008.4 hPa SSE 0.9 mph /  1.4 km/h 3.5 mph /  5.6 km/h 94 % 0.00 in /  0 mm
04:27 72.6 °F /  22.6 °C 70.8 °F /  21.6 °C 29.78 in /  1008.4 hPa South 0.2 mph /  0.3 km/h 2.3 mph /  3.7 km/h 94 % 0.00 in /  0 mm
04:32 72.5 °F /  22.5 °C 70.7 °F /  21.5 °C 29.78 in /  1008.4 hPa SSW 0.3 mph /  0.5 km/h 1.2 mph /  1.9 km/h 94 % 0.00 in /  0 mm
04:37 72.5 °F /  22.5 °C 70.7 °F /  21.5 °C 29.79 in /  1008.7 hPa WSW 0.5 mph /  0.8 km/h 3.5 mph /  5.6 km/h 94 % 0.00 in /  0 mm
04:42 72.5 °F /  22.5 °C 70.7 °F /  21.5 °C 29.78 in /  1008.4 hPa SE 1.5 mph /  2.4 km/h 3.5 mph /  5.6 km/h 94 % 0.00 in /  0 mm
04:47 72.4 °F /  22.4 °C 70.6 °F /  21.4 °C 29.79 in /  1008.7 hPa SSE 1.8 mph /  2.9 km/h 4.6 mph /  7.4 km/h 94 % 0.00 in /  0 mm
04:52 72.4 °F /  22.4 °C 70.6 °F /  21.4 °C 29.79 in /  1008.7 hPa SSW 0.2 mph /  0.3 km/h 1.2 mph /  1.9 km/h 94 % 0.00 in /  0 mm
04:57 72.4 °F /  22.4 °C 70.6 °F /  21.4 °C 29.79 in /  1008.7 hPa South 1.5 mph /  2.4 km/h 3.5 mph /  5.6 km/h 94 % 0.00 in /  0 mm
05:02 72.4 °F /  22.4 °C 70.6 °F /  21.4 °C 29.79 in /  1008.7 hPa SSW 0.6 mph /  1 km/h 2.3 mph /  3.7 km/h 94 % 0.00 in /  0 mm
05:07 72.4 °F /  22.4 °C 70.6 °F /  21.4 °C 29.79 in /  1008.7 hPa SSE 1.7 mph /  2.7 km/h 3.5 mph /  5.6 km/h 94 % 0.00 in /  0 mm
05:12 72.4 °F /  22.4 °C 70.6 °F /  21.4 °C 29.79 in /  1008.7 hPa SSW 1.4 mph /  2.3 km/h 4.0 mph /  6.4 km/h 94 % 0.00 in /  0 mm
05:17 72.3 °F /  22.4 °C 70.8 °F /  21.6 °C 29.79 in /  1008.7 hPa South 1.0 mph /  1.6 km/h 2.3 mph /  3.7 km/h 95 % 0.00 in /  0 mm
05:22 72.3 °F /  22.4 °C 70.8 °F /  21.6 °C 29.79 in /  1008.7 hPa SSE 1.8 mph /  2.9 km/h 3.5 mph /  5.6 km/h 95 % 0.00 in /  0 mm
05:27 72.3 °F /  22.4 °C 70.8 °F /  21.6 °C 29.79 in /  1008.7 hPa South 1.3 mph /  2.1 km/h 3.0 mph /  4.8 km/h 95 % 0.00 in /  0 mm
05:32 72.3 °F /  22.4 °C 70.8 °F /  21.6 °C 29.79 in /  1008.7 hPa South 0.8 mph /  1.3 km/h 4.0 mph /  6.4 km/h 95 % 0.00 in /  0 mm
05:37 72.2 °F /  22.3 °C 70.7 °F /  21.5 °C 29.80 in /  1009 hPa South 0.7 mph /  1.1 km/h 3.5 mph /  5.6 km/h 95 % 0.00 in /  0 mm
05:42 72.2 °F /  22.3 °C 70.7 °F /  21.5 °C 29.80 in /  1009 hPa SSW 1.6 mph /  2.6 km/h 3.5 mph /  5.6 km/h 95 % 0.00 in /  0 mm
05:47 72.2 °F /  22.3 °C 70.7 °F /  21.5 °C 29.80 in /  1009 hPa South 1.3 mph /  2.1 km/h 3.5 mph /  5.6 km/h 95 % 0.00 in /  0 mm
05:53 72.3 °F /  22.4 °C 70.8 °F /  21.6 °C 29.80 in /  1009 hPa South 0.2 mph /  0.3 km/h 3.5 mph /  5.6 km/h 95 % 0.00 in /  0 mm
05:57 72.3 °F /  22.4 °C 70.8 °F /  21.6 °C 29.80 in /  1009 hPa SSW 2.1 mph /  3.4 km/h 3.0 mph /  4.8 km/h 95 % 0.00 in /  0 mm
06:02 72.3 °F /  22.4 °C 70.8 °F /  21.6 °C 29.80 in /  1009 hPa ESE 1.8 mph /  2.9 km/h 4.6 mph /  7.4 km/h 95 % 0.00 in /  0 mm
06:08 72.4 °F /  22.4 °C 70.9 °F /  21.6 °C 29.80 in /  1009 hPa SE 0.4 mph /  0.6 km/h 2.3 mph /  3.7 km/h 95 % 0.00 in /  0 mm
06:13 72.4 °F /  22.4 °C 70.9 °F /  21.6 °C 29.80 in /  1009 hPa South 0.8 mph /  1.3 km/h 2.3 mph /  3.7 km/h 95 % 0.00 in /  0 mm
06:18 72.5 °F /  22.5 °C 71.0 °F /  21.7 °C 29.80 in /  1009 hPa WSW 0.7 mph /  1.1 km/h 3.5 mph /  5.6 km/h 95 % 0.00 in /  0 mm
06:23 72.6 °F /  22.6 °C 71.1 °F /  21.7 °C 29.80 in /  1009 hPa SE 0.4 mph /  0.6 km/h 3.5 mph /  5.6 km/h 95 % 0.00 in /  0 mm
06:28 72.7 °F /  22.6 °C 71.2 °F /  21.8 °C 29.80 in /  1009 hPa SSW 1.0 mph /  1.6 km/h 4.6 mph /  7.4 km/h 95 % 0.00 in /  0 mm
06:33 72.9 °F /  22.7 °C 71.4 °F /  21.9 °C 29.80 in /  1009 hPa SE 0.8 mph /  1.3 km/h 2.3 mph /  3.7 km/h 95 % 0.00 in /  0 mm
06:38 73.0 °F /  22.8 °C 71.5 °F /  21.9 °C 29.80 in /  1009 hPa SSW 1.9 mph /  3.1 km/h 5.0 mph /  8 km/h 95 % 0.00 in /  0 mm
06:43 73.2 °F /  22.9 °C 71.7 °F /  22.1 °C 29.80 in /  1009 hPa SSW 1.0 mph /  1.6 km/h 4.0 mph /  6.4 km/h 95 % 0.00 in /  0 mm
06:48 73.4 °F /  23 °C 71.6 °F /  22 °C 29.80 in /  1009 hPa South 2.7 mph /  4.3 km/h 4.0 mph /  6.4 km/h 94 % 0.00 in /  0 mm
06:53 73.6 °F /  23.1 °C 71.8 °F /  22.1 °C 29.80 in /  1009 hPa SSW 1.0 mph /  1.6 km/h 3.5 mph /  5.6 km/h 94 % 0.00 in /  0 mm
06:58 73.9 °F /  23.3 °C 72.1 °F /  22.3 °C 29.80 in /  1009 hPa SW 1.4 mph /  2.3 km/h 3.5 mph /  5.6 km/h 94 % 0.00 in /  0 mm
07:03 74.2 °F /  23.4 °C 72.4 °F /  22.4 °C 29.80 in /  1009 hPa South 1.5 mph /  2.4 km/h 4.6 mph /  7.4 km/h 94 % 0.00 in /  0 mm
07:08 74.5 °F /  23.6 °C 72.3 °F /  22.4 °C 29.80 in /  1009 hPa SSW 2.4 mph /  3.9 km/h 5.8 mph /  9.3 km/h 93 % 0.00 in /  0 mm
07:13 74.8 °F /  23.8 °C 72.3 °F /  22.4 °C 29.81 in /  1009.4 hPa SSW 1.3 mph /  2.1 km/h 5.8 mph /  9.3 km/h 92 % 0.00 in /  0 mm
07:18 75.0 °F /  23.9 °C 72.5 °F /  22.5 °C 29.81 in /  1009.4 hPa ESE 2.0 mph /  3.2 km/h 3.0 mph /  4.8 km/h 92 % 0.00 in /  0 mm
07:23 75.3 °F /  24.1 °C 72.5 °F /  22.5 °C 29.80 in /  1009 hPa SSW 2.2 mph /  3.5 km/h 4.6 mph /  7.4 km/h 91 % 0.00 in /  0 mm
07:28 75.5 °F /  24.2 °C 72.7 °F /  22.6 °C 29.80 in /  1009 hPa South 1.2 mph /  1.9 km/h 3.5 mph /  5.6 km/h 91 % 0.00 in /  0 mm
07:33 75.7 °F /  24.3 °C 72.6 °F /  22.6 °C 29.80 in /  1009 hPa South 2.6 mph /  4.2 km/h 4.6 mph /  7.4 km/h 90 % 0.00 in /  0 mm
07:38 75.8 °F /  24.3 °C 72.7 °F /  22.6 °C 29.80 in /  1009 hPa South 0.8 mph /  1.3 km/h 3.5 mph /  5.6 km/h 90 % 0.00 in /  0 mm
07:43 75.9 °F /  24.4 °C 72.8 °F /  22.7 °C 29.81 in /  1009.4 hPa South 2.4 mph /  3.9 km/h 5.8 mph /  9.3 km/h 90 % 0.00 in /  0 mm
07:48 75.9 °F /  24.4 °C 72.8 °F /  22.7 °C 29.81 in /  1009.4 hPa ESE 1.1 mph /  1.8 km/h 8.0 mph /  12.9 km/h 90 % 0.00 in /  0 mm
07:53 76.0 °F /  24.4 °C 72.9 °F /  22.7 °C 29.81 in /  1009.4 hPa SSE 0.8 mph /  1.3 km/h 3.5 mph /  5.6 km/h 90 % 0.00 in /  0 mm
07:58 76.1 °F /  24.5 °C 73.0 °F /  22.8 °C 29.81 in /  1009.4 hPa SSW 2.6 mph /  4.2 km/h 4.6 mph /  7.4 km/h 90 % 0.00 in /  0 mm
08:03 76.2 °F /  24.6 °C 73.1 °F /  22.8 °C 29.81 in /  1009.4 hPa SSE 2.7 mph /  4.3 km/h 5.0 mph /  8 km/h 90 % 0.00 in /  0 mm
08:08 76.4 °F /  24.7 °C 73.2 °F /  22.9 °C 29.81 in /  1009.4 hPa South 1.6 mph /  2.6 km/h 3.5 mph /  5.6 km/h 90 % 0.00 in /  0 mm
08:13 76.5 °F /  24.7 °C 73.3 °F /  22.9 °C 29.81 in /  1009.4 hPa South 3.3 mph /  5.3 km/h 3.5 mph /  5.6 km/h 90 % 0.00 in /  0 mm
08:19 76.7 °F /  24.8 °C 73.5 °F /  23.1 °C 29.80 in /  1009 hPa SSW 1.9 mph /  3.1 km/h 5.8 mph /  9.3 km/h 90 % 0.00 in /  0 mm
08:24 77.0 °F /  25 °C 73.5 °F /  23.1 °C 29.80 in /  1009 hPa SSE 3.5 mph /  5.6 km/h 7.0 mph /  11.3 km/h 89 % 0.00 in /  0 mm
08:29 77.1 °F /  25.1 °C 73.6 °F /  23.1 °C 29.80 in /  1009 hPa SE 2.3 mph /  3.7 km/h 6.9 mph /  11.1 km/h 89 % 0.00 in /  0 mm
08:34 77.3 °F /  25.2 °C 73.5 °F /  23.1 °C 29.80 in /  1009 hPa South 2.1 mph /  3.4 km/h 5.8 mph /  9.3 km/h 88 % 0.00 in /  0 mm
08:39 77.6 °F /  25.3 °C 74.1 °F /  23.4 °C 29.81 in /  1009.4 hPa SSW 2.0 mph /  3.2 km/h 5.8 mph /  9.3 km/h 89 % 0.00 in /  0 mm
08:44 77.8 °F /  25.4 °C 73.6 °F /  23.1 °C 29.81 in /  1009.4 hPa South 3.1 mph /  5 km/h 6.9 mph /  11.1 km/h 87 % 0.00 in /  0 mm
08:49 78.0 °F /  25.6 °C 73.8 °F /  23.2 °C 29.81 in /  1009.4 hPa SSE 2.9 mph /  4.7 km/h 5.8 mph /  9.3 km/h 87 % 0.00 in /  0 mm
08:54 78.1 °F /  25.6 °C 73.6 °F /  23.1 °C 29.80 in /  1009 hPa South 1.8 mph /  2.9 km/h 4.6 mph /  7.4 km/h 86 % 0.00 in /  0 mm
08:59 78.2 °F /  25.7 °C 74.0 °F /  23.3 °C 29.81 in /  1009.4 hPa South 2.0 mph /  3.2 km/h 3.5 mph /  5.6 km/h 87 % 0.00 in /  0 mm
09:04 78.2 °F /  25.7 °C 73.7 °F /  23.2 °C 29.81 in /  1009.4 hPa SW 1.5 mph /  2.4 km/h 5.0 mph /  8 km/h 86 % 0.00 in /  0 mm
09:09 78.3 °F /  25.7 °C 73.8 °F /  23.2 °C 29.81 in /  1009.4 hPa SSW 2.8 mph /  4.5 km/h 4.0 mph /  6.4 km/h 86 % 0.00 in /  0 mm
09:14 78.4 °F /  25.8 °C 73.9 °F /  23.3 °C 29.81 in /  1009.4 hPa SSE 2.0 mph /  3.2 km/h 9.2 mph /  14.8 km/h 86 % 0.00 in /  0 mm
09:19 78.3 °F /  25.7 °C 73.8 °F /  23.2 °C 29.81 in /  1009.4 hPa SSE 2.7 mph /  4.3 km/h 4.6 mph /  7.4 km/h 86 % 0.00 in /  0 mm
09:24 78.4 °F /  25.8 °C 73.9 °F /  23.3 °C 29.82 in /  1009.7 hPa SSW 1.7 mph /  2.7 km/h 8.1 mph /  13 km/h 86 % 0.00 in /  0 mm
09:29 78.5 °F /  25.8 °C 74.0 °F /  23.3 °C 29.82 in /  1009.7 hPa SSW 0.8 mph /  1.3 km/h 4.6 mph /  7.4 km/h 86 % 0.00 in /  0 mm
09:34 78.7 °F /  25.9 °C 74.2 °F /  23.4 °C 29.82 in /  1009.7 hPa SE 1.9 mph /  3.1 km/h 6.9 mph /  11.1 km/h 86 % 0.00 in /  0 mm
09:35 78.7 °F /  25.9 °C 74.2 °F /  23.4 °C 29.81 in /  1009.4 hPa SE 1.7 mph /  2.7 km/h 5.8 mph /  9.3 km/h 86 % 0.00 in /  0 mm
09:40 79.1 °F /  26.2 °C 74.5 °F /  23.6 °C 29.82 in /  1009.7 hPa SW 4.9 mph /  7.9 km/h 8.1 mph /  13 km/h 86 % 0.00 in /  0 mm
09:45 79.4 °F /  26.3 °C 74.5 °F /  23.6 °C 29.81 in /  1009.4 hPa SW 1.6 mph /  2.6 km/h 6.9 mph /  11.1 km/h 85 % 0.00 in /  0 mm
09:50 79.8 °F /  26.6 °C 74.9 °F /  23.8 °C 29.82 in /  1009.7 hPa WSW 0.2 mph /  0.3 km/h 3.0 mph /  4.8 km/h 85 % 0.00 in /  0 mm
09:56 80.4 °F /  26.9 °C 75.1 °F /  23.9 °C 29.82 in /  1009.7 hPa SSW 3.0 mph /  4.8 km/h 13.0 mph /  20.9 km/h 84 % 0.00 in /  0 mm
10:01 81.0 °F /  27.2 °C 75.3 °F /  24.1 °C 29.82 in /  1009.7 hPa SSW 3.7 mph /  6 km/h 4.0 mph /  6.4 km/h 83 % 0.00 in /  0 mm
10:05 81.3 °F /  27.4 °C 74.9 °F /  23.8 °C 29.82 in /  1009.7 hPa SSE 1.1 mph /  1.8 km/h 6.9 mph /  11.1 km/h 81 % 0.00 in /  0 mm
10:11 81.6 °F /  27.6 °C 75.2 °F /  24 °C 29.82 in /  1009.7 hPa SE 2.0 mph /  3.2 km/h 3.5 mph /  5.6 km/h 81 % 0.00 in /  0 mm
10:16 81.7 °F /  27.6 °C 74.9 °F /  23.8 °C 29.82 in /  1009.7 hPa SSW 1.6 mph /  2.6 km/h 4.0 mph /  6.4 km/h 80 % 0.00 in /  0 mm
10:21 81.8 °F /  27.7 °C 75.4 °F /  24.1 °C 29.82 in /  1009.7 hPa ESE 0.9 mph /  1.4 km/h 4.0 mph /  6.4 km/h 81 % 0.00 in /  0 mm
10:26 81.7 °F /  27.6 °C 74.9 °F /  23.8 °C 29.82 in /  1009.7 hPa SSE 2.0 mph /  3.2 km/h 9.0 mph /  14.5 km/h 80 % 0.00 in /  0 mm
10:31 81.8 °F /  27.7 °C 75.4 °F /  24.1 °C 29.81 in /  1009.4 hPa SSE 1.0 mph /  1.6 km/h 8.0 mph /  12.9 km/h 81 % 0.00 in /  0 mm
10:36 82.0 °F /  27.8 °C 75.2 °F /  24 °C 29.81 in /  1009.4 hPa SSE 1.0 mph /  1.6 km/h 7.0 mph /  11.3 km/h 80 % 0.00 in /  0 mm
10:41 82.4 °F /  28 °C 75.2 °F /  24 °C 29.81 in /  1009.4 hPa South 2.0 mph /  3.2 km/h 9.0 mph /  14.5 km/h 79 % 0.00 in /  0 mm
10:46 82.8 °F /  28.2 °C 75.7 °F /  24.3 °C 29.82 in /  1009.7 hPa South 3.0 mph /  4.8 km/h 9.0 mph /  14.5 km/h 79 % 0.00 in /  0 mm
10:51 83.2 °F /  28.4 °C 75.6 °F /  24.2 °C 29.82 in /  1009.7 hPa South 2.0 mph /  3.2 km/h 10.0 mph /  16.1 km/h 78 % 0.00 in /  0 mm
10:55 83.4 °F /  28.6 °C 75.0 °F /  23.9 °C 29.81 in /  1009.4 hPa SE 5.7 mph /  9.2 km/h 12.7 mph /  20.4 km/h 76 % 0.00 in /  0 mm
11:01 83.6 °F /  28.7 °C 75.6 °F /  24.2 °C 29.80 in /  1009 hPa South 2.6 mph /  4.2 km/h 9.2 mph /  14.8 km/h 77 % 0.00 in /  0 mm
11:06 83.9 °F /  28.8 °C 75.9 °F /  24.4 °C 29.80 in /  1009 hPa SW 3.6 mph /  5.8 km/h 7.0 mph /  11.3 km/h 77 % 0.00 in /  0 mm
11:11 84.3 °F /  29.1 °C 76.3 °F /  24.6 °C 29.81 in /  1009.4 hPa South 0.9 mph /  1.4 km/h 4.6 mph /  7.4 km/h 77 % 0.00 in /  0 mm
11:16 84.3 °F /  29.1 °C 75.5 °F /  24.2 °C 29.80 in /  1009 hPa SSE 2.6 mph /  4.2 km/h 6.9 mph /  11.1 km/h 75 % 0.00 in /  0 mm
11:21 84.2 °F /  29 °C 75.8 °F /  24.3 °C 29.80 in /  1009 hPa SSE 2.2 mph /  3.5 km/h 4.6 mph /  7.4 km/h 76 % 0.00 in /  0 mm
11:26 84.5 °F /  29.2 °C 75.7 °F /  24.3 °C 29.80 in /  1009 hPa SE 3.0 mph /  4.8 km/h 7.0 mph /  11.3 km/h 75 % 0.00 in /  0 mm
11:31 84.6 °F /  29.2 °C 75.4 °F /  24.1 °C 29.79 in /  1008.7 hPa SSE 4.1 mph /  6.6 km/h 10.4 mph /  16.7 km/h 74 % 0.00 in /  0 mm
11:36 84.5 °F /  29.2 °C 75.3 °F /  24.1 °C 29.79 in /  1008.7 hPa SSE 6.5 mph /  10.5 km/h 12.7 mph /  20.4 km/h 74 % 0.00 in /  0 mm
11:41 84.3 °F /  29.1 °C 75.1 °F /  23.9 °C 29.79 in /  1008.7 hPa South 3.7 mph /  6 km/h 8.1 mph /  13 km/h 74 % 0.00 in /  0 mm
11:44 84.3 °F /  29.1 °C 75.9 °F /  24.4 °C 29.80 in /  1009 hPa South 3.6 mph /  5.8 km/h 6.9 mph /  11.1 km/h 76 % 0.00 in /  0 mm
11:49 84.9 °F /  29.4 °C 76.9 °F /  24.9 °C 29.80 in /  1009 hPa WNW 1.0 mph /  1.6 km/h 4.6 mph /  7.4 km/h 77 % 0.00 in /  0 mm
11:54 85.4 °F /  29.7 °C 76.2 °F /  24.6 °C 29.80 in /  1009 hPa SSW 5.5 mph /  8.9 km/h 8.0 mph /  12.9 km/h 74 % 0.00 in /  0 mm
11:59 85.8 °F /  29.9 °C 76.1 °F /  24.5 °C 29.79 in /  1008.7 hPa SSE 2.3 mph /  3.7 km/h 8.1 mph /  13 km/h 73 % 0.00 in /  0 mm
12:04 86.1 °F /  30.1 °C 76.0 °F /  24.4 °C 29.79 in /  1008.7 hPa South 2.4 mph /  3.9 km/h 5.8 mph /  9.3 km/h 72 % 0.00 in /  0 mm
12:09 85.8 °F /  29.9 °C 75.7 °F /  24.3 °C 29.78 in /  1008.4 hPa South 1.8 mph /  2.9 km/h 4.6 mph /  7.4 km/h 72 % 0.00 in /  0 mm
12:14 85.9 °F /  29.9 °C 75.8 °F /  24.3 °C 29.78 in /  1008.4 hPa South 3.0 mph /  4.8 km/h 10.4 mph /  16.7 km/h 72 % 0.00 in /  0 mm
12:19 85.5 °F /  29.7 °C 75.9 °F /  24.4 °C 29.78 in /  1008.4 hPa SSE 6.1 mph /  9.8 km/h 11.5 mph /  18.5 km/h 73 % 0.00 in /  0 mm
12:24 85.1 °F /  29.5 °C 75.9 °F /  24.4 °C 29.77 in /  1008 hPa SW 2.5 mph /  4 km/h 5.8 mph /  9.3 km/h 74 % 0.00 in /  0 mm
12:29 85.3 °F /  29.6 °C 76.1 °F /  24.5 °C 29.77 in /  1008 hPa SE 2.2 mph /  3.5 km/h 4.6 mph /  7.4 km/h 74 % 0.00 in /  0 mm
12:34 85.5 °F /  29.7 °C 76.7 °F /  24.8 °C 29.78 in /  1008.4 hPa SSW 2.7 mph /  4.3 km/h 6.9 mph /  11.1 km/h 75 % 0.00 in /  0 mm
12:39 85.7 °F /  29.8 °C 76.0 °F /  24.4 °C 29.78 in /  1008.4 hPa SSW 5.9 mph /  9.5 km/h 11.0 mph /  17.7 km/h 73 % 0.00 in /  0 mm
12:44 85.6 °F /  29.8 °C 75.9 °F /  24.4 °C 29.78 in /  1008.4 hPa SSE 6.9 mph /  11.1 km/h 9.2 mph /  14.8 km/h 73 % 0.00 in /  0 mm
12:49 85.7 °F /  29.8 °C 75.6 °F /  24.2 °C 29.78 in /  1008.4 hPa SSW 5.6 mph /  9 km/h 13.8 mph /  22.2 km/h 72 % 0.00 in /  0 mm
12:54 85.7 °F /  29.8 °C 75.2 °F /  24 °C 29.78 in /  1008.4 hPa SSE 5.7 mph /  9.2 km/h 5.8 mph /  9.3 km/h 71 % 0.00 in /  0 mm
13:00 85.3 °F /  29.6 °C 75.2 °F /  24 °C 29.78 in /  1008.4 hPa SE 2.1 mph /  3.4 km/h 11.5 mph /  18.5 km/h 72 % 0.00 in /  0 mm
13:04 85.0 °F /  29.4 °C 75.4 °F /  24.1 °C 29.77 in /  1008 hPa South 1.5 mph /  2.4 km/h 5.8 mph /  9.3 km/h 73 % 0.00 in /  0 mm
13:10 84.5 °F /  29.2 °C 75.3 °F /  24.1 °C 29.78 in /  1008.4 hPa South 3.3 mph /  5.3 km/h 8.0 mph /  12.9 km/h 74 % 0.00 in /  0 mm
13:15 84.7 °F /  29.3 °C 76.3 °F /  24.6 °C 29.78 in /  1008.4 hPa SE 1.7 mph /  2.7 km/h 5.0 mph /  8 km/h 76 % 0.00 in /  0 mm
13:20 85.2 °F /  29.6 °C 76.4 °F /  24.7 °C 29.78 in /  1008.4 hPa SSE 2.8 mph /  4.5 km/h 9.2 mph /  14.8 km/h 75 % 0.00 in /  0 mm
13:25 85.5 °F /  29.7 °C 76.3 °F /  24.6 °C 29.77 in /  1008 hPa SE 5.2 mph /  8.4 km/h 10.4 mph /  16.7 km/h 74 % 0.00 in /  0 mm
13:30 85.6 °F /  29.8 °C 75.1 °F /  23.9 °C 29.77 in /  1008 hPa South 4.0 mph /  6.4 km/h 6.9 mph /  11.1 km/h 71 % 0.00 in /  0 mm
13:35 85.2 °F /  29.6 °C 74.7 °F /  23.7 °C 29.77 in /  1008 hPa South 4.3 mph /  6.9 km/h 11.5 mph /  18.5 km/h 71 % 0.00 in /  0 mm
13:40 85.0 °F /  29.4 °C 75.0 °F /  23.9 °C 29.77 in /  1008 hPa SSW 4.8 mph /  7.7 km/h 8.1 mph /  13 km/h 72 % 0.00 in /  0 mm
13:45 84.7 °F /  29.3 °C 74.7 °F /  23.7 °C 29.77 in /  1008 hPa South 3.5 mph /  5.6 km/h 8.0 mph /  12.9 km/h 72 % 0.00 in /  0 mm
13:50 84.3 °F /  29.1 °C 74.7 °F /  23.7 °C 29.77 in /  1008 hPa SSW 3.5 mph /  5.6 km/h 9.2 mph /  14.8 km/h 73 % 0.00 in /  0 mm
13:55 84.1 °F /  28.9 °C 74.9 °F /  23.8 °C 29.77 in /  1008 hPa SSE 2.8 mph /  4.5 km/h 5.0 mph /  8 km/h 74 % 0.00 in /  0 mm
14:00 83.9 °F /  28.8 °C 74.7 °F /  23.7 °C 29.77 in /  1008 hPa SSE 4.8 mph /  7.7 km/h 9.2 mph /  14.8 km/h 74 % 0.00 in /  0 mm
14:05 84.2 °F /  29 °C 75.4 °F /  24.1 °C 29.76 in /  1007.7 hPa South 5.5 mph /  8.9 km/h 8.1 mph /  13 km/h 75 % 0.00 in /  0 mm
14:10 84.5 °F /  29.2 °C 75.3 °F /  24.1 °C 29.75 in /  1007.3 hPa East 5.9 mph /  9.5 km/h 9.2 mph /  14.8 km/h 74 % 0.00 in /  0 mm
14:15 84.9 °F /  29.4 °C 75.3 °F /  24.1 °C 29.75 in /  1007.3 hPa South 3.7 mph /  6 km/h 11.5 mph /  18.5 km/h 73 % 0.00 in /  0 mm
14:20 85.3 °F /  29.6 °C 75.7 °F /  24.3 °C 29.75 in /  1007.3 hPa West 2.8 mph /  4.5 km/h 6.9 mph /  11.1 km/h 73 % 0.00 in /  0 mm
14:25 85.8 °F /  29.9 °C 76.1 °F /  24.5 °C 29.75 in /  1007.3 hPa South 5.1 mph /  8.2 km/h 9.0 mph /  14.5 km/h 73 % 0.00 in /  0 mm
14:30 86.1 °F /  30.1 °C 76.0 °F /  24.4 °C 29.75 in /  1007.3 hPa South 5.9 mph /  9.5 km/h 19.6 mph /  31.5 km/h 72 % 0.00 in /  0 mm
14:36 86.2 °F /  30.1 °C 75.3 °F /  24.1 °C 29.74 in /  1007 hPa South 5.0 mph /  8 km/h 10.0 mph /  16.1 km/h 70 % 0.00 in /  0 mm
14:41 86.3 °F /  30.2 °C 75.4 °F /  24.1 °C 29.74 in /  1007 hPa South 5.0 mph /  8 km/h 14.0 mph /  22.5 km/h 70 % 0.00 in /  0 mm
14:46 86.2 °F /  30.1 °C 75.3 °F /  24.1 °C 29.74 in /  1007 hPa South 4.7 mph /  7.6 km/h 8.1 mph /  13 km/h 70 % 0.00 in /  0 mm
14:51 86.1 °F /  30.1 °C 75.2 °F /  24 °C 29.73 in /  1006.7 hPa South 2.8 mph /  4.5 km/h 6.0 mph /  9.7 km/h 70 % 0.00 in /  0 mm
14:56 86.1 °F /  30.1 °C 75.2 °F /  24 °C 29.73 in /  1006.7 hPa SSW 6.7 mph /  10.8 km/h 9.2 mph /  14.8 km/h 70 % 0.00 in /  0 mm
15:01 85.9 °F /  29.9 °C 75.0 °F /  23.9 °C 29.73 in /  1006.7 hPa SSW 4.5 mph /  7.2 km/h 8.1 mph /  13 km/h 70 % 0.00 in /  0 mm
15:06 85.8 °F /  29.9 °C 75.7 °F /  24.3 °C 29.73 in /  1006.7 hPa SSW 7.2 mph /  11.6 km/h 11.5 mph /  18.5 km/h 72 % 0.00 in /  0 mm
15:11 85.8 °F /  29.9 °C 74.9 °F /  23.8 °C 29.73 in /  1006.7 hPa WSW 7.4 mph /  11.9 km/h 12.7 mph /  20.4 km/h 70 % 0.00 in /  0 mm
15:17 85.6 °F /  29.8 °C 74.7 °F /  23.7 °C 29.72 in /  1006.3 hPa SSE 3.4 mph /  5.5 km/h 8.1 mph /  13 km/h 70 % 0.00 in /  0 mm
15:22 85.5 °F /  29.7 °C 75.0 °F /  23.9 °C 29.73 in /  1006.7 hPa SSW 9.0 mph /  14.5 km/h 15.0 mph /  24.1 km/h 71 % 0.00 in /  0 mm
15:27 85.5 °F /  29.7 °C 75.4 °F /  24.1 °C 29.73 in /  1006.7 hPa SSW 3.9 mph /  6.3 km/h 8.1 mph /  13 km/h 72 % 0.00 in /  0 mm
15:32 85.3 °F /  29.6 °C 74.8 °F /  23.8 °C 29.73 in /  1006.7 hPa South 7.6 mph /  12.2 km/h 12.7 mph /  20.4 km/h 71 % 0.00 in /  0 mm
15:37 85.1 °F /  29.5 °C 74.6 °F /  23.7 °C 29.73 in /  1006.7 hPa SSW 4.8 mph /  7.7 km/h 15.0 mph /  24.1 km/h 71 % 0.00 in /  0 mm
15:42 85.0 °F /  29.4 °C 75.0 °F /  23.9 °C 29.73 in /  1006.7 hPa South 5.1 mph /  8.2 km/h 12.7 mph /  20.4 km/h 72 % 0.00 in /  0 mm
15:47 84.9 °F /  29.4 °C 74.9 °F /  23.8 °C 29.74 in /  1007 hPa South 4.1 mph /  6.6 km/h 10.4 mph /  16.7 km/h 72 % 0.00 in /  0 mm
15:52 84.8 °F /  29.3 °C 74.3 °F /  23.5 °C 29.73 in /  1006.7 hPa South 4.2 mph /  6.8 km/h 8.1 mph /  13 km/h 71 % 0.00 in /  0 mm
15:54 84.8 °F /  29.3 °C 75.2 °F /  24 °C 29.73 in /  1006.7 hPa South 3.6 mph /  5.8 km/h 8.1 mph /  13 km/h 73 % 0.00 in /  0 mm
15:59 84.8 °F /  29.3 °C 74.8 °F /  23.8 °C 29.74 in /  1007 hPa South 7.6 mph /  12.2 km/h 12.7 mph /  20.4 km/h 72 % 0.00 in /  0 mm
16:04 84.7 °F /  29.3 °C 74.3 °F /  23.5 °C 29.73 in /  1006.7 hPa South 5.2 mph /  8.4 km/h 12.7 mph /  20.4 km/h 71 % 0.00 in /  0 mm
16:09 84.8 °F /  29.3 °C 74.3 °F /  23.5 °C 29.74 in /  1007 hPa SSW 4.4 mph /  7.1 km/h 9.2 mph /  14.8 km/h 71 % 0.00 in /  0 mm
16:14 84.6 °F /  29.2 °C 74.2 °F /  23.4 °C 29.73 in /  1006.7 hPa South 6.9 mph /  11.1 km/h 15.0 mph /  24.1 km/h 71 % 0.00 in /  0 mm
16:19 84.3 °F /  29.1 °C 73.9 °F /  23.3 °C 29.73 in /  1006.7 hPa SSW 5.2 mph /  8.4 km/h 12.7 mph /  20.4 km/h 71 % 0.00 in /  0 mm
16:24 84.0 °F /  28.9 °C 74.0 °F /  23.3 °C 29.73 in /  1006.7 hPa South 2.8 mph /  4.5 km/h 6.9 mph /  11.1 km/h 72 % 0.00 in /  0 mm
16:30 84.0 °F /  28.9 °C 74.4 °F /  23.6 °C 29.73 in /  1006.7 hPa WSW 2.7 mph /  4.3 km/h 11.5 mph /  18.5 km/h 73 % 0.00 in /  0 mm
16:35 83.8 °F /  28.8 °C 74.2 °F /  23.4 °C 29.72 in /  1006.3 hPa SSW 3.1 mph /  5 km/h 10.4 mph /  16.7 km/h 73 % 0.00 in /  0 mm
16:40 83.8 °F /  28.8 °C 74.2 °F /  23.4 °C 29.73 in /  1006.7 hPa SSE 4.1 mph /  6.6 km/h 13.8 mph /  22.2 km/h 73 % 0.00 in /  0 mm
16:45 83.8 °F /  28.8 °C 74.2 °F /  23.4 °C 29.72 in /  1006.3 hPa SSW 3.6 mph /  5.8 km/h 9.2 mph /  14.8 km/h 73 % 0.00 in /  0 mm
16:50 83.6 °F /  28.7 °C 74.4 °F /  23.6 °C 29.73 in /  1006.7 hPa South 8.1 mph /  13 km/h 16.1 mph /  25.9 km/h 74 % 0.00 in /  0 mm
16:55 83.4 °F /  28.6 °C 74.2 °F /  23.4 °C 29.73 in /  1006.7 hPa SW 3.5 mph /  5.6 km/h 11.5 mph /  18.5 km/h 74 % 0.00 in /  0 mm
17:00 83.1 °F /  28.4 °C 73.9 °F /  23.3 °C 29.72 in /  1006.3 hPa South 6.3 mph /  10.1 km/h 11.5 mph /  18.5 km/h 74 % 0.00 in /  0 mm
17:05 82.5 °F /  28.1 °C 73.4 °F /  23 °C 29.72 in /  1006.3 hPa ESE 5.4 mph /  8.7 km/h 10.4 mph /  16.7 km/h 74 % 0.00 in /  0 mm
17:10 82.0 °F /  27.8 °C 73.7 °F /  23.2 °C 29.72 in /  1006.3 hPa SSE 4.0 mph /  6.4 km/h 9.2 mph /  14.8 km/h 76 % 0.00 in /  0 mm
17:15 81.6 °F /  27.6 °C 73.7 °F /  23.2 °C 29.72 in /  1006.3 hPa SSW 4.7 mph /  7.6 km/h 8.1 mph /  13 km/h 77 % 0.00 in /  0 mm
17:20 81.2 °F /  27.3 °C 73.3 °F /  22.9 °C 29.72 in /  1006.3 hPa South 6.1 mph /  9.8 km/h 13.8 mph /  22.2 km/h 77 % 0.00 in /  0 mm
17:25 80.6 °F /  27 °C 73.1 °F /  22.8 °C 29.73 in /  1006.7 hPa South 5.6 mph /  9 km/h 11.5 mph /  18.5 km/h 78 % 0.00 in /  0 mm
17:30 80.2 °F /  26.8 °C 73.1 °F /  22.8 °C 29.73 in /  1006.7 hPa SW 3.2 mph /  5.1 km/h 9.0 mph /  14.5 km/h 79 % 0.00 in /  0 mm
17:35 79.6 °F /  26.4 °C 72.9 °F /  22.7 °C 29.73 in /  1006.7 hPa SW 4.4 mph /  7.1 km/h 8.1 mph /  13 km/h 80 % 0.00 in /  0 mm
17:40 79.1 °F /  26.2 °C 72.4 °F /  22.4 °C 29.74 in /  1007 hPa SW 3.4 mph /  5.5 km/h 11.0 mph /  17.7 km/h 80 % 0.00 in /  0 mm
17:45 78.8 °F /  26 °C 72.5 °F /  22.5 °C 29.78 in /  1008.4 hPa WSW 8.4 mph /  13.5 km/h 17.3 mph /  27.8 km/h 81 % 0.00 in /  0 mm
17:50 78.4 °F /  25.8 °C 72.4 °F /  22.4 °C 29.77 in /  1008 hPa WNW 3.5 mph /  5.6 km/h 11.5 mph /  18.5 km/h 82 % 0.00 in /  0 mm
17:55 78.0 °F /  25.6 °C 72.1 °F /  22.3 °C 29.77 in /  1008 hPa SSW 3.6 mph /  5.8 km/h 6.9 mph /  11.1 km/h 82 % 0.00 in /  0 mm
18:00 77.8 °F /  25.4 °C 72.2 °F /  22.3 °C 29.77 in /  1008 hPa SW 0.6 mph /  1 km/h 3.5 mph /  5.6 km/h 83 % 0.00 in /  0 mm
18:05 77.6 °F /  25.3 °C 72.0 °F /  22.2 °C 29.77 in /  1008 hPa SSW 1.4 mph /  2.3 km/h 3.5 mph /  5.6 km/h 83 % 0.00 in /  0 mm
18:10 77.4 °F /  25.2 °C 72.2 °F /  22.3 °C 29.77 in /  1008 hPa SE 0.1 mph /  0.2 km/h 3.5 mph /  5.6 km/h 84 % 0.00 in /  0 mm
18:15 77.3 °F /  25.2 °C 72.1 °F /  22.3 °C 29.77 in /  1008 hPa SE 1.1 mph /  1.8 km/h 3.5 mph /  5.6 km/h 84 % 0.00 in /  0 mm
18:20 77.1 °F /  25.1 °C 72.2 °F /  22.3 °C 29.79 in /  1008.7 hPa WSW 3.8 mph /  6.1 km/h 5.0 mph /  8 km/h 85 % 0.00 in /  0 mm
18:25 77.0 °F /  25 °C 72.8 °F /  22.7 °C 29.80 in /  1009 hPa West 2.9 mph /  4.7 km/h 6.0 mph /  9.7 km/h 87 % 0.10 in /  2.54 mm
18:30 76.6 °F /  24.8 °C 72.4 °F /  22.4 °C 29.77 in /  1008 hPa WSW 0.4 mph /  0.6 km/h 1.2 mph /  1.9 km/h 87 % 0.27 in /  6.86 mm
18:36 76.3 °F /  24.6 °C 72.1 °F /  22.3 °C 29.78 in /  1008.4 hPa Calm   1.0 mph /  1.6 km/h 87 % 0.40 in /  10.16 mm
18:41 75.8 °F /  24.3 °C 72.0 °F /  22.2 °C 29.78 in /  1008.4 hPa SSE 1.2 mph /  1.9 km/h 3.5 mph /  5.6 km/h 88 % 0.48 in /  12.19 mm
18:46 75.2 °F /  24 °C 71.7 °F /  22.1 °C 29.79 in /  1008.7 hPa SSE 1.0 mph /  1.6 km/h 3.0 mph /  4.8 km/h 89 % 0.00 in /  0 mm
18:56 74.7 °F /  23.7 °C 71.9 °F /  22.2 °C 29.77 in /  1008 hPa Calm     91 % 0.00 in /  0 mm
19:01 74.5 °F /  23.6 °C 71.7 °F /  22.1 °C 29.79 in /  1008.7 hPa West 0.2 mph /  0.3 km/h 1.2 mph /  1.9 km/h 91 % 0.50 in /  12.7 mm
19:06 74.3 °F /  23.5 °C 71.8 °F /  22.1 °C 29.81 in /  1009.4 hPa SW 1.5 mph /  2.4 km/h 4.0 mph /  6.4 km/h 92 % 0.51 in /  12.95 mm
19:11 74.1 °F /  23.4 °C 71.6 °F /  22 °C 29.80 in /  1009 hPa SE 0.3 mph /  0.5 km/h 3.5 mph /  5.6 km/h 92 % 0.56 in /  14.22 mm
19:16 73.8 °F /  23.2 °C 71.3 °F /  21.8 °C 29.81 in /  1009.4 hPa WSW 1.3 mph /  2.1 km/h 3.5 mph /  5.6 km/h 92 % 0.61 in /  15.49 mm
19:21 73.6 °F /  23.1 °C 71.4 °F /  21.9 °C 29.80 in /  1009 hPa Calm     93 % 0.67 in /  17.02 mm
19:31 73.4 °F /  23 °C 71.3 °F /  21.8 °C 29.81 in /  1009.4 hPa WSW 0.7 mph /  1.1 km/h 2.3 mph /  3.7 km/h 93 % 0.40 in /  10.16 mm
19:32 73.4 °F /  23 °C 71.3 °F /  21.8 °C 29.81 in /  1009.4 hPa WSW 3.1 mph /  5 km/h 5.0 mph /  8 km/h 93 % 0.40 in /  10.16 mm
19:37 73.2 °F /  22.9 °C 71.1 °F /  21.7 °C 29.81 in /  1009.4 hPa WSW 0.4 mph /  0.6 km/h 2.0 mph /  3.2 km/h 93 % 0.26 in /  6.6 mm
19:42 73.1 °F /  22.8 °C 71.0 °F /  21.7 °C 29.81 in /  1009.4 hPa Calm   1.2 mph /  1.9 km/h 93 % 0.23 in /  5.84 mm
19:47 73.0 °F /  22.8 °C 70.9 °F /  21.6 °C 29.80 in /  1009 hPa WSW 0.1 mph /  0.2 km/h 1.2 mph /  1.9 km/h 93 % 0.24 in /  6.1 mm
19:52 73.0 °F /  22.8 °C 71.2 °F /  21.8 °C 29.80 in /  1009 hPa WSW 2.4 mph /  3.9 km/h 4.0 mph /  6.4 km/h 94 % 0.25 in /  6.35 mm
19:57 72.9 °F /  22.7 °C 71.1 °F /  21.7 °C 29.81 in /  1009.4 hPa Calm     94 % 0.25 in /  6.35 mm
20:02 72.7 °F /  22.6 °C 70.9 °F /  21.6 °C 29.80 in /  1009 hPa WNW 1.7 mph /  2.7 km/h 5.8 mph /  9.3 km/h 94 % 0.27 in /  6.86 mm
20:07 72.5 °F /  22.5 °C 70.4 °F /  21.3 °C 29.81 in /  1009.4 hPa West 2.4 mph /  3.9 km/h 3.5 mph /  5.6 km/h 93 % 0.28 in /  7.11 mm
20:12 72.4 °F /  22.4 °C 70.3 °F /  21.3 °C 29.81 in /  1009.4 hPa Calm     93 % 0.23 in /  5.84 mm
20:17 72.2 °F /  22.3 °C 70.1 °F /  21.2 °C 29.81 in /  1009.4 hPa Calm   2.3 mph /  3.7 km/h 93 % 0.18 in /  4.57 mm
20:22 72.1 °F /  22.3 °C 70.3 °F /  21.3 °C 29.81 in /  1009.4 hPa Calm   1.2 mph /  1.9 km/h 94 % 0.15 in /  3.81 mm
20:27 72.1 °F /  22.3 °C 70.3 °F /  21.3 °C 29.82 in /  1009.7 hPa Calm   1.2 mph /  1.9 km/h 94 % 0.14 in /  3.56 mm
20:32 72.0 °F /  22.2 °C 70.2 °F /  21.2 °C 29.82 in /  1009.7 hPa West 0.5 mph /  0.8 km/h 2.3 mph /  3.7 km/h 94 % 0.14 in /  3.56 mm
20:37 72.0 °F /  22.2 °C 70.5 °F /  21.4 °C 29.82 in /  1009.7 hPa Calm   1.2 mph /  1.9 km/h 95 % 0.15 in /  3.81 mm
20:42 71.9 °F /  22.2 °C 70.4 °F /  21.3 °C 29.82 in /  1009.7 hPa WSW 0.9 mph /  1.4 km/h 3.0 mph /  4.8 km/h 95 % 0.15 in /  3.81 mm
20:47 71.8 °F /  22.1 °C 70.3 °F /  21.3 °C 29.81 in /  1009.4 hPa WSW 0.9 mph /  1.4 km/h 2.3 mph /  3.7 km/h 95 % 0.14 in /  3.56 mm
20:52 71.7 °F /  22.1 °C 70.2 °F /  21.2 °C 29.80 in /  1009 hPa WSW 0.4 mph /  0.6 km/h 2.3 mph /  3.7 km/h 95 % 0.14 in /  3.56 mm
20:57 71.6 °F /  22 °C 70.1 °F /  21.2 °C 29.80 in /  1009 hPa South 0.1 mph /  0.2 km/h 1.2 mph /  1.9 km/h 95 % 0.14 in /  3.56 mm
21:02 71.4 °F /  21.9 °C 69.9 °F /  21.1 °C 29.80 in /  1009 hPa Calm     95 % 0.13 in /  3.3 mm
21:07 71.3 °F /  21.8 °C 69.8 °F /  21 °C 29.80 in /  1009 hPa South 0.3 mph /  0.5 km/h 1.2 mph /  1.9 km/h 95 % 0.12 in /  3.05 mm
21:13 71.1 °F /  21.7 °C 69.6 °F /  20.9 °C 29.81 in /  1009.4 hPa SSW 0.3 mph /  0.5 km/h 2.3 mph /  3.7 km/h 95 % 0.11 in /  2.79 mm
21:14 71.1 °F /  21.7 °C 69.6 °F /  20.9 °C 29.81 in /  1009.4 hPa Calm     95 % 0.12 in /  3.05 mm
21:19 70.9 °F /  21.6 °C 69.4 °F /  20.8 °C 29.82 in /  1009.7 hPa SW 0.3 mph /  0.5 km/h 1.2 mph /  1.9 km/h 95 % 0.10 in /  2.54 mm
21:24 70.8 °F /  21.6 °C 69.3 °F /  20.7 °C 29.82 in /  1009.7 hPa Calm   1.2 mph /  1.9 km/h 95 % 0.10 in /  2.54 mm
21:29 70.7 °F /  21.5 °C 69.2 °F /  20.7 °C 29.82 in /  1009.7 hPa Calm     95 % 0.09 in /  2.29 mm
21:34 70.5 °F /  21.4 °C 69.0 °F /  20.6 °C 29.82 in /  1009.7 hPa Calm   2.3 mph /  3.7 km/h 95 % 0.09 in /  2.29 mm
21:39 70.4 °F /  21.3 °C 68.9 °F /  20.5 °C 29.82 in /  1009.7 hPa SW 0.7 mph /  1.1 km/h 2.3 mph /  3.7 km/h 95 % 0.08 in /  2.03 mm
21:45 70.3 °F /  21.3 °C 68.8 °F /  20.4 °C 29.83 in /  1010 hPa SW 0.8 mph /  1.3 km/h 2.3 mph /  3.7 km/h 95 % 0.07 in /  1.78 mm
21:50 70.1 °F /  21.2 °C 68.6 °F /  20.3 °C 29.83 in /  1010 hPa SSE 0.5 mph /  0.8 km/h 2.3 mph /  3.7 km/h 95 % 0.07 in /  1.78 mm
21:55 70.0 °F /  21.1 °C 68.5 °F /  20.3 °C 29.83 in /  1010 hPa South 1.0 mph /  1.6 km/h 3.5 mph /  5.6 km/h 95 % 0.06 in /  1.52 mm
22:00 69.9 °F /  21.1 °C 68.4 °F /  20.2 °C 29.84 in /  1010.4 hPa South 0.7 mph /  1.1 km/h 2.3 mph /  3.7 km/h 95 % 0.05 in /  1.27 mm
22:05 69.9 °F /  21.1 °C 68.4 °F /  20.2 °C 29.84 in /  1010.4 hPa SSE 0.5 mph /  0.8 km/h 1.2 mph /  1.9 km/h 95 % 0.05 in /  1.27 mm
22:10 69.8 °F /  21 °C 68.3 °F /  20.2 °C 29.84 in /  1010.4 hPa SW 1.6 mph /  2.6 km/h 4.0 mph /  6.4 km/h 95 % 0.05 in /  1.27 mm
22:15 69.7 °F /  20.9 °C 68.2 °F /  20.1 °C 29.84 in /  1010.4 hPa South 0.4 mph /  0.6 km/h 4.0 mph /  6.4 km/h 95 % 0.05 in /  1.27 mm
22:20 69.7 °F /  20.9 °C 68.5 °F /  20.3 °C 29.84 in /  1010.4 hPa SSE 0.8 mph /  1.3 km/h 3.5 mph /  5.6 km/h 96 % 0.04 in /  1.02 mm
22:25 69.6 °F /  20.9 °C 68.4 °F /  20.2 °C 29.84 in /  1010.4 hPa SSE 2.5 mph /  4 km/h 5.0 mph /  8 km/h 96 % 0.04 in /  1.02 mm
22:30 69.5 °F /  20.8 °C 68.3 °F /  20.2 °C 29.84 in /  1010.4 hPa SSE 0.1 mph /  0.2 km/h 1.2 mph /  1.9 km/h 96 % 0.03 in /  0.76 mm
22:35 69.5 °F /  20.8 °C 68.3 °F /  20.2 °C 29.83 in /  1010 hPa SSW 0.7 mph /  1.1 km/h 1.2 mph /  1.9 km/h 96 % 0.03 in /  0.76 mm
22:40 69.5 °F /  20.8 °C 68.3 °F /  20.2 °C 29.83 in /  1010 hPa ESE 0.2 mph /  0.3 km/h 2.3 mph /  3.7 km/h 96 % 0.03 in /  0.76 mm
22:45 69.5 °F /  20.8 °C 68.3 °F /  20.2 °C 29.83 in /  1010 hPa ESE 0.2 mph /  0.3 km/h 1.0 mph /  1.6 km/h 96 % 0.03 in /  0.76 mm
22:50 69.5 °F /  20.8 °C 68.3 °F /  20.2 °C 29.84 in /  1010.4 hPa ESE 0.1 mph /  0.2 km/h 2.3 mph /  3.7 km/h 96 % 0.02 in /  0.51 mm
22:56 69.5 °F /  20.8 °C 68.3 °F /  20.2 °C 29.84 in /  1010.4 hPa Calm   5.0 mph /  8 km/h 96 % 0.00 in /  0 mm
23:01 69.5 °F /  20.8 °C 68.3 °F /  20.2 °C 29.84 in /  1010.4 hPa SSW 1.2 mph /  1.9 km/h 3.5 mph /  5.6 km/h 96 % 0.02 in /  0.51 mm
23:06 69.4 °F /  20.8 °C 68.2 °F /  20.1 °C 29.83 in /  1010 hPa South 2.2 mph /  3.5 km/h 6.9 mph /  11.1 km/h 96 % 0.01 in /  0.25 mm
23:11 69.4 °F /  20.8 °C 68.2 °F /  20.1 °C 29.84 in /  1010.4 hPa SSE 0.4 mph /  0.6 km/h 3.5 mph /  5.6 km/h 96 % 0.01 in /  0.25 mm
23:16 69.4 °F /  20.8 °C 68.2 °F /  20.1 °C 29.84 in /  1010.4 hPa SSW 0.8 mph /  1.3 km/h 3.5 mph /  5.6 km/h 96 % 0.00 in /  0 mm
23:21 69.4 °F /  20.8 °C 68.2 °F /  20.1 °C 29.84 in /  1010.4 hPa Calm   2.3 mph /  3.7 km/h 96 % 0.00 in /  0 mm
23:26 69.4 °F /  20.8 °C 68.2 °F /  20.1 °C 29.84 in /  1010.4 hPa WSW 0.2 mph /  0.3 km/h 1.2 mph /  1.9 km/h 96 % 0.00 in /  0 mm
23:31 69.3 °F /  20.7 °C 68.1 °F /  20.1 °C 29.84 in /  1010.4 hPa South 0.3 mph /  0.5 km/h 3.5 mph /  5.6 km/h 96 % 0.00 in /  0 mm
23:36 69.3 °F /  20.7 °C 68.1 °F /  20.1 °C 29.84 in /  1010.4 hPa SSW 0.3 mph /  0.5 km/h 3.5 mph /  5.6 km/h 96 % 0.00 in /  0 mm
23:41 69.3 °F /  20.7 °C 68.1 °F /  20.1 °C 29.84 in /  1010.4 hPa SE 1.1 mph /  1.8 km/h 2.0 mph /  3.2 km/h 96 % 0.00 in /  0 mm
23:46 69.3 °F /  20.7 °C 68.1 °F /  20.1 °C 29.84 in /  1010.4 hPa Calm   2.3 mph /  3.7 km/h 96 % 0.00 in /  0 mm
23:51 69.3 °F /  20.7 °C 68.1 °F /  20.1 °C 29.84 in /  1010.4 hPa SSW 0.7 mph /  1.1 km/h 3.5 mph /  5.6 km/h 96 % 0.00 in /  0 mm
23:56 69.3 °F /  20.7 °C 68.1 °F /  20.1 °C 29.84 in /  1010.4 hPa SE 0.5 mph /  0.8 km/h 3.5 mph /  5.6 km/h 96 % 0.00 in /  0 mm
Crab Meadow Weather
Compliments of Weather Underground - 3 mb

Script developed by  Jim McMurry - jmcmurry@mwt.net Adapted for the template by  Wim van der Kuil - Leuven-Template.eu

Weather Terms: Sleet - Sleet or ice pellets are solid grains of ice formed from the freezing of rain or the refreezing of melted snow, which bounce off the ground and other objects.